Time;durP1;ratioP1;P1;durP2;ratioP2;P2;SDS_P1;SDS_P2;PMS_P1;PMS_P2;Temp;Humidity;BMP_temperature;BMP_pressure;BME280_temperature;BME280_humidity;BME280_pressure;Samples;Min_cycle;Max_cycle;Signal;HPM_P1;HPM_P2
2023/10/24 00:02:23;;;;;;;2.37;2.17;;;;;;;;;;5115133;27;20477;-75
2023/10/24 00:04:49;;;;;;;3.03;1.80;;;;;;;;;;5118557;27;21027;-75
2023/10/24 00:07:16;;;;;;;4.30;3.10;;;;;;;;;;5124385;27;20482;-74
2023/10/24 00:09:42;;;;;;;3.20;2.07;;;;;;;;;;5123992;27;20489;-74
2023/10/24 00:12:09;;;;;;;7.50;2.03;;;;;;;;;;5113435;27;20479;-75
2023/10/24 00:14:36;;;;;;;3.63;2.30;;;;;;;;;;5110432;27;21013;-76
2023/10/24 00:17:03;;;;;;;3.67;2.00;;;;;;;;;;5117897;27;20509;-75
2023/10/24 00:19:30;;;;;;;2.33;1.63;;;;;;;;;;5125074;27;20449;-75
2023/10/24 00:21:56;;;;;;;2.67;2.37;;;;;;;;;;5111392;27;20504;-75
2023/10/24 00:24:22;;;;;;;6.30;2.50;;;;;;;;;;5114607;28;20493;-74
2023/10/24 00:26:49;;;;;;;2.77;2.13;;;;;;;;;;5112762;27;20482;-74
2023/10/24 00:29:15;;;;;;;4.80;2.00;;;;;;;;;;5115559;27;20493;-74
2023/10/24 00:31:43;;;;;;;5.63;2.10;;;;;;;;;;5114938;27;20519;-74
2023/10/24 00:34:12;;;;;;;3.70;2.30;;;;;;;;;;5118708;27;20451;-75
2023/10/24 00:36:39;;;;;;;3.10;2.23;;;;;;;;;;5111284;28;20631;-75
2023/10/24 00:39:06;;;;;;;8.13;2.50;;;;;;;;;;5117644;27;20449;-75
2023/10/24 00:41:32;;;;;;;5.70;2.07;;;;;;;;;;5109727;27;20522;-75
2023/10/24 00:43:58;;;;;;;3.07;2.70;;;;;;;;;;5125229;27;20481;-75
2023/10/24 00:46:25;;;;;;;2.77;2.13;;;;;;;;;;5112984;27;20480;-75
2023/10/24 00:48:53;;;;;;;4.90;2.20;;;;;;;;;;5117335;27;20511;-74
2023/10/24 00:51:19;;;;;;;5.17;2.37;;;;;;;;;;5124363;27;20455;-75
2023/10/24 00:53:46;;;;;;;4.70;2.67;;;;;;;;;;5121619;27;20484;-75
2023/10/24 00:56:13;;;;;;;3.03;2.23;;;;;;;;;;5115120;27;20481;-75
2023/10/24 00:58:40;;;;;;;4.63;2.30;;;;;;;;;;5120614;27;20497;-75
2023/10/24 01:01:09;;;;;;;2.23;1.70;;;;;;;;;;5119613;27;20495;-74
2023/10/24 01:03:36;;;;;;;3.57;2.30;;;;;;;;;;5123173;27;20510;-74
2023/10/24 01:06:04;;;;;;;4.60;2.40;;;;;;;;;;5116791;27;20557;-74
2023/10/24 01:08:31;;;;;;;5.43;2.33;;;;;;;;;;5111537;27;20546;-74
2023/10/24 01:10:57;;;;;;;3.77;2.40;;;;;;;;;;5113054;27;20462;-75
2023/10/24 01:13:24;;;;;;;2.40;2.10;;;;;;;;;;5114673;27;20526;-74
2023/10/24 01:15:50;;;;;;;1.73;1.63;;;;;;;;;;5114309;28;20768;-73
2023/10/24 01:18:16;;;;;;;4.70;2.23;;;;;;;;;;5128088;27;20546;-74
2023/10/24 01:20:43;;;;;;;3.80;1.83;;;;;;;;;;5113885;27;20541;-74
2023/10/24 01:23:11;;;;;;;6.07;2.57;;;;;;;;;;5106649;28;20507;-74
2023/10/24 01:25:38;;;;;;;4.80;2.13;;;;;;;;;;5107965;27;20683;-74
2023/10/24 01:28:05;;;;;;;6.30;2.47;;;;;;;;;;5118963;27;20760;-73
2023/10/24 01:30:32;;;;;;;2.37;2.00;;;;;;;;;;5107198;28;20835;-73
2023/10/24 01:32:58;;;;;;;7.47;2.20;;;;;;;;;;5116592;27;20661;-73
2023/10/24 01:35:25;;;;;;;5.93;1.97;;;;;;;;;;5117276;28;20451;-73
2023/10/24 01:37:51;;;;;;;2.23;2.00;;;;;;;;;;5122660;28;20584;-73
2023/10/24 01:40:19;;;;;;;5.40;2.30;;;;;;;;;;5114713;28;20537;-73
2023/10/24 01:42:45;;;;;;;3.47;2.30;;;;;;;;;;5119464;28;20486;-74
2023/10/24 01:45:11;;;;;;;3.97;2.27;;;;;;;;;;5125652;28;20524;-74
2023/10/24 01:47:38;;;;;;;6.17;2.40;;;;;;;;;;5119236;28;20524;-74
2023/10/24 01:50:05;;;;;;;2.53;1.97;;;;;;;;;;5121981;28;20469;-75
2023/10/24 01:52:32;;;;;;;4.43;2.30;;;;;;;;;;5117370;28;20484;-75
2023/10/24 01:54:58;;;;;;;4.37;2.43;;;;;;;;;;5112015;28;20534;-75
2023/10/24 01:57:26;;;;;;;3.17;2.00;;;;;;;;;;5122337;28;20557;-74
2023/10/24 01:59:52;;;;;;;3.30;2.07;;;;;;;;;;5121660;27;20535;-74
2023/10/24 02:02:19;;;;;;;3.47;1.93;;;;;;;;;;5110173;27;20471;-74
2023/10/24 02:04:45;;;;;;;6.30;2.87;;;;;;;;;;5117001;27;21107;-74
2023/10/24 02:07:12;;;;;;;9.13;2.53;;;;;;;;;;5116745;27;21343;-74
2023/10/24 02:09:38;;;;;;;4.33;1.93;;;;;;;;;;5116318;27;20471;-74
2023/10/24 02:12:05;;;;;;;5.70;2.10;;;;;;;;;;5122260;28;20473;-74
2023/10/24 02:14:32;;;;;;;3.20;2.43;;;;;;;;;;5112117;27;20454;-74
2023/10/24 02:16:59;;;;;;;5.87;2.60;;;;;;;;;;5119199;27;20525;-75
2023/10/24 02:19:26;;;;;;;3.57;1.87;;;;;;;;;;5108196;27;20541;-75
2023/10/24 02:21:52;;;;;;;3.80;2.27;;;;;;;;;;5107909;27;20483;-75
2023/10/24 02:24:18;;;;;;;3.43;1.93;;;;;;;;;;5120056;27;20776;-75
2023/10/24 02:26:45;;;;;;;3.30;2.30;;;;;;;;;;5120265;27;20446;-75
2023/10/24 02:29:11;;;;;;;2.87;2.53;;;;;;;;;;5113564;28;21056;-75
2023/10/24 02:31:39;;;;;;;6.10;2.97;;;;;;;;;;5120499;27;20526;-75
2023/10/24 02:34:05;;;;;;;6.00;2.43;;;;;;;;;;5113065;28;20478;-75
2023/10/24 02:36:32;;;;;;;4.60;2.00;;;;;;;;;;5116473;28;20854;-75
2023/10/24 02:38:58;;;;;;;6.10;2.40;;;;;;;;;;5118578;27;20550;-75
2023/10/24 02:41:24;;;;;;;5.33;2.40;;;;;;;;;;5128016;27;20550;-75
2023/10/24 02:43:51;;;;;;;3.67;2.00;;;;;;;;;;5110175;27;21050;-74
2023/10/24 02:46:17;;;;;;;4.87;2.20;;;;;;;;;;5111268;28;20470;-75
2023/10/24 02:48:45;;;;;;;3.63;2.63;;;;;;;;;;5126261;27;20880;-74
2023/10/24 02:51:12;;;;;;;6.87;2.60;;;;;;;;;;5115159;27;20463;-74
2023/10/24 02:53:38;;;;;;;2.87;2.07;;;;;;;;;;5118317;27;20482;-74
2023/10/24 02:56:05;;;;;;;1.83;1.60;;;;;;;;;;5113389;27;20454;-74
2023/10/24 02:58:31;;;;;;;4.77;2.53;;;;;;;;;;5121359;27;20577;-74
2023/10/24 03:01:03;;;;;;;4.83;2.83;;;;;;;;;;5117676;27;20534;-74
2023/10/24 03:03:29;;;;;;;4.60;2.47;;;;;;;;;;5121384;27;20446;-74
2023/10/24 03:05:57;;;;;;;3.03;2.00;;;;;;;;;;5114250;27;20534;-74
2023/10/24 03:08:24;;;;;;;4.77;1.80;;;;;;;;;;5118887;27;20560;-74
2023/10/24 03:10:50;;;;;;;3.50;2.20;;;;;;;;;;5113950;27;20983;-74
2023/10/24 03:13:16;;;;;;;5.03;2.20;;;;;;;;;;5116721;27;20478;-74
2023/10/24 03:15:43;;;;;;;3.50;2.00;;;;;;;;;;5115341;28;20545;-75
2023/10/24 03:18:10;;;;;;;2.67;2.20;;;;;;;;;;5124624;27;20553;-74
2023/10/24 03:20:39;;;;;;;5.17;2.10;;;;;;;;;;5123881;27;20518;-74
2023/10/24 03:23:07;;;;;;;3.90;2.63;;;;;;;;;;5124251;27;20442;-75
2023/10/24 03:25:33;;;;;;;4.17;2.87;;;;;;;;;;5119987;27;20910;-75
2023/10/24 03:28:00;;;;;;;5.70;4.83;;;;;;;;;;5113879;28;20525;-75
2023/10/24 03:30:26;;;;;;;3.23;2.40;;;;;;;;;;5116821;27;20455;-75
2023/10/24 03:32:52;;;;;;;5.63;2.80;;;;;;;;;;5117068;27;20519;-75
2023/10/24 03:35:19;;;;;;;3.90;2.23;;;;;;;;;;5114092;28;20510;-74
2023/10/24 03:37:45;;;;;;;3.30;2.37;;;;;;;;;;5115848;28;20528;-74
2023/10/24 03:40:13;;;;;;;5.90;2.87;;;;;;;;;;5122334;27;20477;-74
2023/10/24 03:42:39;;;;;;;4.53;2.67;;;;;;;;;;5116155;27;20533;-75
2023/10/24 03:45:09;;;;;;;3.03;2.80;;;;;;;;;;5128377;27;20490;-75
2023/10/24 03:47:36;;;;;;;2.63;2.33;;;;;;;;;;5114238;27;20483;-75
2023/10/24 03:50:03;;;;;;;3.67;2.40;;;;;;;;;;5118829;28;20462;-75
2023/10/24 03:52:30;;;;;;;7.60;2.40;;;;;;;;;;5110656;27;20540;-74
2023/10/24 03:54:56;;;;;;;6.27;2.97;;;;;;;;;;5109277;27;20467;-73
2023/10/24 03:57:24;;;;;;;3.10;1.80;;;;;;;;;;5117898;27;20578;-73
2023/10/24 03:59:50;;;;;;;2.40;2.07;;;;;;;;;;5124305;27;20524;-74
2023/10/24 04:02:16;;;;;;;3.97;2.67;;;;;;;;;;5116960;27;20560;-73
2023/10/24 04:04:43;;;;;;;4.67;2.70;;;;;;;;;;5119349;28;20449;-73
2023/10/24 04:07:09;;;;;;;6.53;2.87;;;;;;;;;;5123192;27;20486;-74
2023/10/24 04:09:36;;;;;;;2.33;2.13;;;;;;;;;;5122190;27;20477;-73
2023/10/24 04:12:02;;;;;;;2.33;1.80;;;;;;;;;;5122679;27;20509;-73
2023/10/24 04:14:30;;;;;;;4.90;2.77;;;;;;;;;;5126817;27;20485;-74
2023/10/24 04:16:56;;;;;;;5.60;3.30;;;;;;;;;;5127085;27;20615;-74
2023/10/24 04:19:23;;;;;;;3.13;1.90;;;;;;;;;;5125814;27;20864;-73
2023/10/24 04:21:49;;;;;;;4.00;2.80;;;;;;;;;;5112128;27;20922;-74
2023/10/24 04:24:16;;;;;;;4.63;2.63;;;;;;;;;;5094137;28;20498;-73
2023/10/24 04:26:42;;;;;;;6.07;2.60;;;;;;;;;;5096065;28;20457;-74
2023/10/24 04:29:09;;;;;;;3.17;2.87;;;;;;;;;;5111190;28;20474;-74
2023/10/24 04:31:37;;;;;;;4.90;2.43;;;;;;;;;;5109262;27;20472;-74
2023/10/24 04:34:04;;;;;;;4.33;2.60;;;;;;;;;;5115955;28;20451;-76
2023/10/24 04:36:31;;;;;;;2.90;2.07;;;;;;;;;;5115249;28;20488;-73
2023/10/24 04:38:57;;;;;;;4.57;2.90;;;;;;;;;;5115920;27;20566;-73
2023/10/24 04:41:24;;;;;;;3.20;2.60;;;;;;;;;;5115181;28;20482;-72
2023/10/24 04:43:50;;;;;;;2.67;2.37;;;;;;;;;;5114272;27;20519;-72
2023/10/24 04:46:17;;;;;;;2.70;2.37;;;;;;;;;;5113225;27;20480;-72
2023/10/24 04:48:44;;;;;;;4.00;2.20;;;;;;;;;;5110887;27;20469;-72
2023/10/24 04:51:11;;;;;;;3.50;2.17;;;;;;;;;;5105461;28;20527;-72
2023/10/24 04:53:38;;;;;;;3.53;2.57;;;;;;;;;;5120509;27;20530;-72
2023/10/24 04:56:04;;;;;;;4.20;2.50;;;;;;;;;;5125114;27;20490;-72
2023/10/24 04:58:31;;;;;;;2.80;2.40;;;;;;;;;;5120053;27;21268;-72
2023/10/24 05:00:57;;;;;;;3.63;2.40;;;;;;;;;;5123947;27;20491;-72
2023/10/24 05:03:24;;;;;;;4.40;2.33;;;;;;;;;;5119187;27;20446;-72
2023/10/24 05:05:51;;;;;;;5.70;2.90;;;;;;;;;;5109604;27;20459;-72
2023/10/24 05:08:18;;;;;;;6.73;2.40;;;;;;;;;;5118042;27;20514;-73
2023/10/24 05:10:44;;;;;;;6.83;2.80;;;;;;;;;;5124003;27;20575;-72
2023/10/24 05:13:10;;;;;;;2.80;2.00;;;;;;;;;;5112969;27;20492;-74
2023/10/24 05:15:37;;;;;;;6.33;2.43;;;;;;;;;;5114495;27;20470;-78
2023/10/24 05:18:04;;;;;;;3.87;2.40;;;;;;;;;;5125997;27;20563;-79
2023/10/24 05:20:30;;;;;;;4.00;2.70;;;;;;;;;;5110849;28;20519;-78
2023/10/24 05:22:58;;;;;;;4.63;2.70;;;;;;;;;;5114224;27;20521;-78
2023/10/24 05:25:24;;;;;;;4.60;2.77;;;;;;;;;;5109380;27;20517;-78
2023/10/24 05:27:51;;;;;;;5.13;3.80;;;;;;;;;;5114803;27;20477;-78
2023/10/24 05:30:17;;;;;;;4.70;2.80;;;;;;;;;;5113368;27;20477;-78
2023/10/24 05:32:44;;;;;;;5.00;3.07;;;;;;;;;;5115649;27;20442;-76
2023/10/24 05:35:11;;;;;;;3.27;2.50;;;;;;;;;;5112270;28;20454;-79
2023/10/24 05:37:37;;;;;;;4.30;3.10;;;;;;;;;;5117702;27;20505;-75
2023/10/24 05:40:05;;;;;;;7.97;3.13;;;;;;;;;;5117775;28;20480;-79
2023/10/24 05:42:32;;;;;;;8.07;4.97;;;;;;;;;;5112212;28;20485;-77
2023/10/24 05:44:58;;;;;;;7.23;3.67;;;;;;;;;;5116509;28;20511;-79
2023/10/24 05:47:25;;;;;;;4.50;3.60;;;;;;;;;;5122136;28;20450;-80
2023/10/24 05:49:51;;;;;;;4.90;3.40;;;;;;;;;;5119477;28;20974;-79
2023/10/24 05:52:17;;;;;;;5.07;3.17;;;;;;;;;;5110817;28;20457;-79
2023/10/24 05:54:44;;;;;;;8.63;3.00;;;;;;;;;;5115299;28;20452;-74
2023/10/24 05:57:12;;;;;;;4.60;2.93;;;;;;;;;;5124799;28;20485;-72
2023/10/24 05:59:38;;;;;;;3.80;2.77;;;;;;;;;;5116436;28;20482;-72
2023/10/24 06:02:04;;;;;;;3.77;2.83;;;;;;;;;;5116998;28;20508;-73
2023/10/24 06:04:34;;;;;;;4.30;2.33;;;;;;;;;;5119181;28;20455;-69
2023/10/24 06:07:00;;;;;;;2.93;2.60;;;;;;;;;;5117145;28;20477;-70
2023/10/24 06:09:26;;;;;;;2.93;2.63;;;;;;;;;;5130802;28;20525;-69
2023/10/24 06:11:53;;;;;;;2.50;2.30;;;;;;;;;;5128394;28;20552;-69
2023/10/24 06:14:20;;;;;;;3.37;3.07;;;;;;;;;;5110558;28;20459;-70
2023/10/24 06:16:47;;;;;;;6.10;3.80;;;;;;;;;;5113958;28;20481;-69
2023/10/24 06:19:13;;;;;;;5.47;3.70;;;;;;;;;;5133019;28;20540;-67
2023/10/24 06:21:40;;;;;;;3.77;3.47;;;;;;;;;;5114630;28;20587;-66
2023/10/24 06:24:06;;;;;;;3.27;2.97;;;;;;;;;;5122229;28;21001;-67
2023/10/24 06:26:32;;;;;;;7.03;3.40;;;;;;;;;;5117010;28;20566;-68
2023/10/24 06:28:59;;;;;;;3.50;3.10;;;;;;;;;;5119574;28;20466;-67
2023/10/24 06:31:28;;;;;;;3.80;3.00;;;;;;;;;;5125269;28;20544;-67
2023/10/24 06:33:54;;;;;;;3.63;3.33;;;;;;;;;;5115673;28;20463;-67
2023/10/24 06:36:21;;;;;;;3.13;2.73;;;;;;;;;;5121687;28;20575;-67
2023/10/24 06:38:47;;;;;;;6.23;3.20;;;;;;;;;;5117669;28;20481;-67
2023/10/24 06:41:14;;;;;;;4.73;3.00;;;;;;;;;;5120518;28;20537;-67
2023/10/24 06:43:40;;;;;;;4.27;3.10;;;;;;;;;;5128729;27;20461;-67
2023/10/24 06:46:07;;;;;;;4.03;3.10;;;;;;;;;;5128034;27;20477;-67
2023/10/24 06:48:35;;;;;;;4.93;3.57;;;;;;;;;;5132147;27;20438;-67
2023/10/24 06:51:02;;;;;;;3.60;3.30;;;;;;;;;;5121557;27;20458;-67
2023/10/24 06:53:28;;;;;;;3.17;2.87;;;;;;;;;;5121253;28;20446;-67
2023/10/24 06:55:58;;;;;;;2.83;2.63;;;;;;;;;;5121245;27;20515;-67
2023/10/24 06:58:25;;;;;;;3.93;3.20;;;;;;;;;;5123577;27;20865;-68
2023/10/24 07:00:51;;;;;;;3.50;3.20;;;;;;;;;;5121815;27;20449;-67
2023/10/24 07:03:17;;;;;;;4.97;2.83;;;;;;;;;;5135822;27;20521;-68
2023/10/24 07:05:51;;;;;;;4.97;2.87;;;;;;;;;;5125590;27;20875;-67
2023/10/24 07:08:17;;;;;;;3.00;2.70;;;;;;;;;;5120943;27;20442;-67
2023/10/24 07:10:43;;;;;;;7.20;3.43;;;;;;;;;;5121029;27;20461;-67
2023/10/24 07:13:11;;;;;;;7.40;3.80;;;;;;;;;;5116627;27;20489;-67
2023/10/24 07:15:37;;;;;;;5.20;2.90;;;;;;;;;;5122474;27;20464;-67
2023/10/24 07:18:04;;;;;;;4.60;2.83;;;;;;;;;;5115141;27;20450;-67
2023/10/24 07:20:30;;;;;;;3.33;2.67;;;;;;;;;;5114380;27;20479;-68
2023/10/24 07:22:58;;;;;;;4.40;3.70;;;;;;;;;;5123900;27;20480;-68
2023/10/24 07:25:24;;;;;;;11.90;7.17;;;;;;;;;;5123823;27;20500;-67
2023/10/24 07:27:50;;;;;;;7.03;3.73;;;;;;;;;;5123458;27;20473;-67
2023/10/24 07:30:17;;;;;;;9.63;4.07;;;;;;;;;;5115690;27;20554;-67
2023/10/24 07:32:43;;;;;;;5.67;3.47;;;;;;;;;;5125205;27;20583;-68
2023/10/24 07:35:10;;;;;;;3.53;2.93;;;;;;;;;;5133553;27;20512;-67
2023/10/24 07:37:36;;;;;;;6.37;2.73;;;;;;;;;;5115536;27;20502;-67
2023/10/24 07:40:04;;;;;;;4.87;3.40;;;;;;;;;;5122663;27;20854;-67
2023/10/24 07:42:31;;;;;;;11.67;3.17;;;;;;;;;;5115915;28;20451;-67
2023/10/24 07:44:58;;;;;;;4.03;2.70;;;;;;;;;;5125408;27;20462;-67
2023/10/24 07:47:26;;;;;;;3.13;2.77;;;;;;;;;;5114156;27;20525;-68
2023/10/24 07:49:52;;;;;;;3.80;3.20;;;;;;;;;;5120033;27;20461;-67
2023/10/24 07:52:19;;;;;;;2.57;2.13;;;;;;;;;;5118683;28;20512;-68
2023/10/24 07:54:45;;;;;;;3.93;2.73;;;;;;;;;;5113846;28;20502;-67
2023/10/24 07:57:13;;;;;;;3.80;2.80;;;;;;;;;;5124068;27;20549;-67
2023/10/24 07:59:39;;;;;;;4.27;3.03;;;;;;;;;;5114488;27;20489;-68
2023/10/24 08:02:06;;;;;;;4.37;2.63;;;;;;;;;;5117786;27;20466;-68
2023/10/24 08:04:34;;;;;;;4.03;2.60;;;;;;;;;;5118261;27;20518;-67
2023/10/24 08:07:01;;;;;;;5.47;3.10;;;;;;;;;;5117271;27;20467;-68
2023/10/24 08:09:28;;;;;;;2.77;2.37;;;;;;;;;;5126414;27;20434;-67
2023/10/24 08:11:54;;;;;;;3.20;2.70;;;;;;;;;;5117770;28;20488;-68
2023/10/24 08:14:22;;;;;;;2.53;2.33;;;;;;;;;;5116429;27;20441;-68
2023/10/24 08:16:48;;;;;;;3.13;2.20;;;;;;;;;;5118856;27;20534;-67
2023/10/24 08:19:15;;;;;;;2.63;2.43;;;;;;;;;;5124327;27;20546;-67
2023/10/24 08:21:41;;;;;;;3.10;2.47;;;;;;;;;;5119853;27;20449;-67
2023/10/24 08:24:08;;;;;;;3.27;2.77;;;;;;;;;;5125785;27;20545;-67
2023/10/24 08:26:34;;;;;;;3.20;2.87;;;;;;;;;;5127090;27;20574;-67
2023/10/24 08:29:00;;;;;;;3.80;2.67;;;;;;;;;;5114082;27;20538;-67
2023/10/24 08:31:28;;;;;;;4.30;2.90;;;;;;;;;;5125772;27;20485;-67
2023/10/24 08:33:55;;;;;;;4.20;2.87;;;;;;;;;;5121226;27;20521;-67
2023/10/24 08:36:21;;;;;;;2.90;2.60;;;;;;;;;;5118308;27;20507;-67
2023/10/24 08:38:47;;;;;;;3.10;2.80;;;;;;;;;;5114273;28;20566;-67
2023/10/24 08:41:14;;;;;;;3.60;3.00;;;;;;;;;;5125999;27;20496;-67
2023/10/24 08:43:40;;;;;;;2.63;2.43;;;;;;;;;;5122280;27;20466;-67
2023/10/24 08:46:07;;;;;;;4.33;2.47;;;;;;;;;;5121991;27;20535;-67
2023/10/24 08:48:35;;;;;;;2.80;2.60;;;;;;;;;;5117290;28;21026;-67
2023/10/24 08:51:02;;;;;;;2.90;2.43;;;;;;;;;;5122054;27;20458;-68
2023/10/24 08:53:29;;;;;;;3.50;3.00;;;;;;;;;;5121219;27;20458;-68
2023/10/24 08:55:57;;;;;;;2.90;2.70;;;;;;;;;;5127412;27;20476;-68
2023/10/24 08:58:24;;;;;;;3.87;2.47;;;;;;;;;;5121535;27;20798;-68
2023/10/24 09:00:51;;;;;;;2.80;2.60;;;;;;;;;;5125675;27;20545;-68
2023/10/24 09:03:18;;;;;;;2.60;2.40;;;;;;;;;;5124615;27;20452;-67
2023/10/24 09:05:46;;;;;;;2.93;2.73;;;;;;;;;;5118675;28;21024;-68
2023/10/24 09:08:13;;;;;;;4.70;2.83;;;;;;;;;;5121962;27;20489;-68
2023/10/24 09:10:39;;;;;;;4.40;2.87;;;;;;;;;;5120363;27;20537;-68
2023/10/24 09:13:06;;;;;;;4.20;2.87;;;;;;;;;;5125443;27;20515;-68
2023/10/24 09:15:36;;;;;;;3.03;2.67;;;;;;;;;;5115577;28;20451;-68
2023/10/24 09:18:03;;;;;;;4.53;3.07;;;;;;;;;;5125349;27;20457;-68
2023/10/24 09:20:30;;;;;;;3.50;2.90;;;;;;;;;;5124728;27;20514;-67
2023/10/24 09:23:03;;;;;;;2.60;2.20;;;;;;;;;;5123217;27;20540;-68
2023/10/24 09:25:29;;;;;;;2.67;2.47;;;;;;;;;;5117255;27;20509;-67
2023/10/24 09:28:14;;;;;;;2.43;2.23;;;;;;;;;;5079599;28;20451;-67
2023/10/24 09:30:41;;;;;;;2.60;2.40;;;;;;;;;;5125091;27;20466;-67
2023/10/24 09:33:07;;;;;;;2.63;2.43;;;;;;;;;;5124353;27;20452;-68
2023/10/24 09:35:36;;;;;;;2.87;2.67;;;;;;;;;;5114320;28;20542;-68
2023/10/24 09:38:06;;;;;;;5.13;3.00;;;;;;;;;;5113614;27;20459;-68
2023/10/24 09:40:36;;;;;;;2.70;2.50;;;;;;;;;;5124350;27;20512;-67
2023/10/24 09:43:04;;;;;;;3.17;2.30;;;;;;;;;;5120675;28;20454;-67
2023/10/24 09:45:32;;;;;;;3.57;3.00;;;;;;;;;;5120775;28;20806;-68
2023/10/24 09:47:59;;;;;;;2.63;2.43;;;;;;;;;;5115313;28;20529;-68
2023/10/24 09:50:25;;;;;;;2.73;2.53;;;;;;;;;;5117643;28;20438;-68
2023/10/24 09:52:52;;;;;;;2.10;1.97;;;;;;;;;;5115218;28;20857;-68
2023/10/24 09:55:20;;;;;;;3.37;2.40;;;;;;;;;;5118877;28;20494;-67
2023/10/24 09:57:48;;;;;;;4.00;3.10;;;;;;;;;;5115507;28;20457;-67
2023/10/24 10:00:15;;;;;;;3.60;2.60;;;;;;;;;;5105246;28;20542;-67
2023/10/24 10:02:44;;;;;;;2.80;2.33;;;;;;;;;;5115789;28;20606;-68
2023/10/24 10:05:10;;;;;;;3.20;2.53;;;;;;;;;;5123120;28;20520;-67
2023/10/24 10:07:37;;;;;;;2.40;2.20;;;;;;;;;;5123367;28;20505;-68
2023/10/24 10:10:05;;;;;;;2.43;2.33;;;;;;;;;;5133030;28;20463;-68
2023/10/24 10:12:34;;;;;;;7.63;2.60;;;;;;;;;;5119595;28;20454;-69
2023/10/24 10:15:09;;;;;;;3.83;2.63;;;;;;;;;;5123287;28;20697;-68
2023/10/24 10:17:39;;;;;;;2.50;2.30;;;;;;;;;;5119210;28;20528;-68
2023/10/24 10:20:14;;;;;;;2.47;2.37;;;;;;;;;;5121775;27;20509;-68
2023/10/24 10:22:48;;;;;;;4.03;2.37;;;;;;;;;;5120352;27;20466;-68
2023/10/24 10:25:27;;;;;;;3.03;2.83;;;;;;;;;;5120565;27;20513;-68
2023/10/24 10:28:00;;;;;;;2.57;2.37;;;;;;;;;;5124830;27;20526;-68
2023/10/24 10:30:30;;;;;;;3.07;2.87;;;;;;;;;;5131108;27;20484;-68
2023/10/24 10:33:02;;;;;;;2.80;2.60;;;;;;;;;;5130045;27;20493;-68
2023/10/24 10:35:43;;;;;;;3.10;2.90;;;;;;;;;;5133030;27;20450;-68
2023/10/24 10:38:10;;;;;;;2.83;2.60;;;;;;;;;;5123583;27;20447;-68
2023/10/24 10:40:36;;;;;;;2.80;2.60;;;;;;;;;;5125696;27;20468;-68
2023/10/24 10:43:04;;;;;;;7.53;2.70;;;;;;;;;;5125226;27;20527;-68
2023/10/24 10:45:32;;;;;;;2.70;2.50;;;;;;;;;;5106822;27;20482;-68
2023/10/24 10:47:59;;;;;;;3.00;2.70;;;;;;;;;;5118789;27;20957;-68
2023/10/24 10:50:27;;;;;;;2.77;2.50;;;;;;;;;;5112066;27;20540;-67
2023/10/24 10:52:57;;;;;;;2.70;2.50;;;;;;;;;;5116792;27;20494;-68
2023/10/24 10:55:32;;;;;;;2.87;2.67;;;;;;;;;;5120753;27;20488;-68
2023/10/24 10:58:02;;;;;;;2.97;2.77;;;;;;;;;;5119581;27;20473;-67
2023/10/24 11:00:33;;;;;;;3.00;2.80;;;;;;;;;;5135515;27;20472;-67
2023/10/24 11:03:05;;;;;;;2.57;2.37;;;;;;;;;;5136005;27;20453;-68
2023/10/24 11:05:50;;;;;;;3.87;2.87;;;;;;;;;;5115701;27;20491;-68
2023/10/24 11:08:18;;;;;;;2.70;2.50;;;;;;;;;;5121254;27;20458;-68
2023/10/24 11:10:59;;;;;;;4.70;2.73;;;;;;;;;;5111858;27;20541;-68
2023/10/24 11:13:32;;;;;;;4.80;2.60;;;;;;;;;;5119407;27;20510;-67
2023/10/24 11:16:00;;;;;;;2.70;2.50;;;;;;;;;;5118061;28;20446;-68
2023/10/24 11:18:27;;;;;;;3.13;2.83;;;;;;;;;;5124227;27;20481;-67
2023/10/24 11:20:53;;;;;;;3.17;2.87;;;;;;;;;;5121801;27;20505;-67
2023/10/24 11:23:20;;;;;;;3.47;3.00;;;;;;;;;;5121993;27;20525;-68
2023/10/24 11:25:46;;;;;;;2.13;2.03;;;;;;;;;;5121773;27;20516;-68
2023/10/24 11:28:13;;;;;;;2.60;2.40;;;;;;;;;;5128490;27;20580;-68
2023/10/24 11:30:39;;;;;;;3.60;2.50;;;;;;;;;;5113228;27;20490;-68
2023/10/24 11:33:07;;;;;;;3.73;2.57;;;;;;;;;;5129754;27;20488;-68
2023/10/24 11:35:33;;;;;;;3.13;2.83;;;;;;;;;;5128496;27;20538;-67
2023/10/24 11:37:59;;;;;;;2.87;2.67;;;;;;;;;;5127870;27;20477;-67
2023/10/24 11:40:26;;;;;;;3.00;2.40;;;;;;;;;;5114760;27;20494;-68
2023/10/24 11:42:52;;;;;;;3.97;2.93;;;;;;;;;;5119798;27;20445;-68
2023/10/24 11:45:20;;;;;;;2.97;2.77;;;;;;;;;;5127763;27;20470;-68
2023/10/24 11:47:47;;;;;;;2.90;2.57;;;;;;;;;;5125303;27;20451;-68
2023/10/24 11:50:15;;;;;;;3.47;2.60;;;;;;;;;;5120624;27;20446;-68
2023/10/24 11:52:41;;;;;;;2.43;2.23;;;;;;;;;;5123238;27;20521;-69
2023/10/24 11:55:08;;;;;;;3.10;2.80;;;;;;;;;;5114730;27;20538;-68
2023/10/24 11:57:35;;;;;;;3.60;3.23;;;;;;;;;;5121277;27;20521;-67
2023/10/24 12:00:01;;;;;;;2.90;2.70;;;;;;;;;;5135060;27;20513;-68
2023/10/24 12:02:28;;;;;;;2.57;2.37;;;;;;;;;;5125873;27;20480;-68
2023/10/24 12:04:54;;;;;;;2.77;2.57;;;;;;;;;;5131937;27;20676;-68
2023/10/24 12:07:22;;;;;;;3.07;2.47;;;;;;;;;;5125450;27;20461;-68
2023/10/24 12:09:48;;;;;;;2.73;2.57;;;;;;;;;;5123681;27;20442;-67
2023/10/24 12:12:15;;;;;;;3.03;2.83;;;;;;;;;;5112773;28;20888;-68
2023/10/24 12:14:44;;;;;;;4.60;3.10;;;;;;;;;;5122945;27;20448;-67
2023/10/24 12:17:11;;;;;;;3.43;2.80;;;;;;;;;;5123089;27;20546;-68
2023/10/24 12:19:38;;;;;;;4.67;3.77;;;;;;;;;;5116609;27;20453;-68
2023/10/24 12:22:04;;;;;;;2.80;2.60;;;;;;;;;;5125342;27;20457;-67
2023/10/24 12:24:32;;;;;;;2.83;2.63;;;;;;;;;;5123593;27;21056;-68
2023/10/24 12:26:58;;;;;;;2.47;2.37;;;;;;;;;;5127784;27;20485;-68
2023/10/24 12:29:25;;;;;;;4.50;2.80;;;;;;;;;;5129327;27;20589;-67
2023/10/24 12:31:51;;;;;;;3.40;3.10;;;;;;;;;;5129302;27;20458;-67
2023/10/24 12:34:18;;;;;;;2.80;2.60;;;;;;;;;;5119572;28;20477;-67
2023/10/24 12:36:45;;;;;;;2.57;2.37;;;;;;;;;;5120081;27;20557;-68
2023/10/24 12:39:11;;;;;;;2.50;2.30;;;;;;;;;;5118400;27;20456;-67
2023/10/24 12:41:39;;;;;;;4.07;2.57;;;;;;;;;;5110206;27;20485;-67
2023/10/24 12:44:06;;;;;;;3.00;2.80;;;;;;;;;;5112850;27;20515;-67
2023/10/24 12:46:32;;;;;;;2.80;2.60;;;;;;;;;;5135738;27;20457;-67
2023/10/24 12:48:59;;;;;;;3.20;3.00;;;;;;;;;;5126128;27;20489;-67
2023/10/24 12:51:25;;;;;;;3.30;2.97;;;;;;;;;;5134598;27;20699;-68
2023/10/24 12:53:52;;;;;;;3.40;2.77;;;;;;;;;;5127886;27;20481;-68
2023/10/24 12:56:18;;;;;;;3.00;2.80;;;;;;;;;;5118700;28;20484;-67
2023/10/24 12:58:46;;;;;;;3.10;2.73;;;;;;;;;;5119984;27;20489;-68
2023/10/24 13:01:12;;;;;;;3.83;3.03;;;;;;;;;;5122186;27;20574;-67
2023/10/24 13:03:39;;;;;;;2.80;2.40;;;;;;;;;;5122436;27;20478;-67
2023/10/24 13:06:05;;;;;;;2.97;2.77;;;;;;;;;;5129045;27;20480;-68
2023/10/24 13:08:32;;;;;;;2.90;2.70;;;;;;;;;;5124454;27;20522;-68
2023/10/24 13:10:58;;;;;;;3.20;3.00;;;;;;;;;;5123532;27;20541;-68
2023/10/24 13:13:24;;;;;;;2.63;2.27;;;;;;;;;;5125686;27;20484;-69
2023/10/24 13:15:52;;;;;;;3.00;2.80;;;;;;;;;;5109586;28;20486;-67
2023/10/24 13:18:19;;;;;;;3.40;3.20;;;;;;;;;;5117841;28;20492;-68
2023/10/24 13:20:45;;;;;;;3.23;3.03;;;;;;;;;;5119982;27;20550;-66
2023/10/24 13:23:11;;;;;;;2.87;2.67;;;;;;;;;;5122753;27;20522;-69
2023/10/24 13:25:38;;;;;;;3.07;2.87;;;;;;;;;;5118596;27;20581;-68
2023/10/24 13:28:05;;;;;;;3.40;3.10;;;;;;;;;;5133021;27;20484;-68
2023/10/24 13:30:31;;;;;;;3.60;3.30;;;;;;;;;;5117771;27;20446;-68
2023/10/24 13:32:59;;;;;;;3.37;3.17;;;;;;;;;;5119351;27;20457;-68
2023/10/24 13:35:26;;;;;;;3.00;2.77;;;;;;;;;;5126839;28;20445;-68
2023/10/24 13:37:52;;;;;;;3.63;3.33;;;;;;;;;;5131801;27;20491;-68
2023/10/24 13:40:22;;;;;;;3.03;2.63;;;;;;;;;;5123537;27;20520;-68
2023/10/24 13:42:48;;;;;;;4.90;3.20;;;;;;;;;;5117010;28;20477;-68
2023/10/24 13:45:15;;;;;;;3.30;3.10;;;;;;;;;;5103085;28;20459;-68
2023/10/24 13:47:41;;;;;;;3.03;2.83;;;;;;;;;;5126163;28;20492;-68
2023/10/24 13:50:10;;;;;;;5.40;3.67;;;;;;;;;;5119124;28;20447;-68
2023/10/24 13:52:36;;;;;;;3.17;2.97;;;;;;;;;;5128606;28;20442;-68
2023/10/24 13:55:03;;;;;;;2.90;2.70;;;;;;;;;;5122026;27;21004;-67
2023/10/24 13:57:29;;;;;;;3.70;2.80;;;;;;;;;;5118986;28;20477;-67
2023/10/24 13:59:56;;;;;;;2.93;2.70;;;;;;;;;;5120686;27;20481;-67
2023/10/24 14:02:22;;;;;;;2.90;2.70;;;;;;;;;;5127069;27;20514;-68
2023/10/24 14:04:49;;;;;;;2.53;2.40;;;;;;;;;;5131083;27;20453;-67
2023/10/24 14:07:16;;;;;;;4.13;2.70;;;;;;;;;;5127447;27;20514;-68
2023/10/24 14:09:43;;;;;;;3.77;2.30;;;;;;;;;;5119253;27;20503;-68
2023/10/24 14:12:12;;;;;;;3.10;2.40;;;;;;;;;;5122900;27;20474;-68
2023/10/24 14:14:38;;;;;;;2.67;2.43;;;;;;;;;;5121338;27;20780;-68
2023/10/24 14:17:05;;;;;;;3.07;2.53;;;;;;;;;;5124570;27;20938;-68
2023/10/24 14:19:31;;;;;;;3.30;2.57;;;;;;;;;;5127252;27;20472;-67
2023/10/24 14:21:58;;;;;;;2.77;2.50;;;;;;;;;;5134638;27;20517;-67
2023/10/24 14:24:26;;;;;;;3.10;2.30;;;;;;;;;;5119875;27;20491;-67
2023/10/24 14:26:52;;;;;;;2.57;2.37;;;;;;;;;;5112989;28;20490;-68
2023/10/24 14:29:19;;;;;;;2.53;2.33;;;;;;;;;;5120165;27;20488;-68
2023/10/24 14:31:45;;;;;;;3.23;2.60;;;;;;;;;;5109902;28;20978;-68
2023/10/24 14:34:12;;;;;;;2.43;2.23;;;;;;;;;;5111091;27;20450;-66
2023/10/24 14:36:38;;;;;;;2.00;1.90;;;;;;;;;;5119040;27;20634;-67
2023/10/24 14:39:06;;;;;;;11.23;2.27;;;;;;;;;;5124631;27;20489;-67
2023/10/24 14:41:33;;;;;;;2.23;2.03;;;;;;;;;;5121808;27;20481;-67
2023/10/24 14:44:00;;;;;;;3.03;1.80;;;;;;;;;;5131094;27;20465;-67